Whycocomagh, Canada
Current Conditions -  °F | °C
As of 6:00 AM on Sunday 23 Nov 2014 (Local Time) from CYPD Reporting Station
Overcast Overcast  
Wind Chill: 29°   Ceiling: 1600
Heat Index: 36°   Visibility: 9mi
Dew Point: 34°   Wind: 9mph
Humidity: 93%   Direction: 250°WSW
Pressure: 29.81"   Gusts: NA
Location:  45.97°N, 61.12°W
Report Text: CYPD 231000Z AUTO 25008KT 9SM OVC016 02/01 A2981 RMK SLP101
Loading
Personal Weather Stations






























Interactive Weather Map New forecast layout! Learn more

10-Day Weather Forecast

Advertisements
Track Severe Weather on mobile